createdAt,value
2023-05-21T00:00:48.962Z,67.52
2023-05-21T00:03:16.478Z,67.15
2023-05-21T00:05:47.755Z,65.66
2023-05-21T00:08:15.556Z,64.92
2023-05-21T00:10:42.659Z,66.99
2023-05-21T00:13:12.821Z,67.94
2023-05-21T00:15:40.000Z,67.79
2023-05-21T00:18:07.545Z,67.80
2023-05-21T00:20:35.560Z,65.60
2023-05-21T00:23:03.947Z,67.04
2023-05-21T00:25:31.362Z,68.11
2023-05-21T00:27:58.574Z,67.02
2023-05-21T00:30:25.829Z,68.70
2023-05-21T00:33:05.466Z,67.66
2023-05-21T00:35:36.245Z,68.64
2023-05-21T00:38:12.225Z,68.05
2023-05-21T00:40:41.272Z,68.12
2023-05-21T00:43:10.702Z,69.02
2023-05-21T00:45:43.068Z,69.61
2023-05-21T00:48:11.484Z,70.46
2023-05-21T00:50:42.163Z,68.75
2023-05-21T00:53:12.699Z,69.45
2023-05-21T00:55:41.218Z,68.20
2023-05-21T00:58:09.169Z,71.08
2023-05-21T01:00:44.292Z,68.16
2023-05-21T01:03:13.914Z,69.91
2023-05-21T01:05:45.244Z,70.63
2023-05-21T01:08:16.283Z,68.61
2023-05-21T01:10:44.402Z,69.68
2023-05-21T01:13:16.368Z,69.83
2023-05-21T01:15:47.757Z,67.29
2023-05-21T01:18:18.861Z,70.58
2023-05-21T01:20:48.204Z,69.88
2023-05-21T01:23:20.116Z,70.78
2023-05-21T01:25:47.857Z,69.34
2023-05-21T01:28:15.027Z,69.53
2023-05-21T01:30:43.496Z,67.87
2023-05-21T01:33:43.717Z,67.88
2023-05-21T01:36:32.849Z,69.99
2023-05-21T01:39:23.995Z,70.07
2023-05-21T01:41:55.768Z,70.86
2023-05-21T01:44:26.491Z,70.48
2023-05-21T01:46:56.519Z,72.00
2023-05-21T01:49:24.778Z,68.77
2023-05-21T01:51:52.226Z,70.17
2023-05-21T01:54:28.506Z,70.97
2023-05-21T01:56:56.244Z,70.60
2023-05-21T01:59:23.589Z,72.13
2023-05-21T02:01:51.004Z,74.11
2023-05-21T02:04:18.274Z,71.25
2023-05-21T02:06:45.689Z,69.61
2023-05-21T02:09:12.838Z,70.28
2023-05-21T02:11:40.004Z,69.56
2023-05-21T02:14:10.379Z,69.20
2023-05-21T02:16:38.525Z,69.49
2023-05-21T02:19:06.689Z,73.90
2023-05-21T02:21:34.103Z,68.58
2023-05-21T02:24:01.429Z,70.64
2023-05-21T02:26:31.632Z,72.29
2023-05-21T02:28:59.243Z,73.06
2023-05-21T02:31:29.730Z,73.91
2023-05-21T02:33:56.957Z,72.97
2023-05-21T02:36:28.798Z,73.60
2023-05-21T02:38:57.789Z,71.85
2023-05-21T02:41:25.101Z,75.11
2023-05-21T02:43:55.254Z,73.98
2023-05-21T02:46:25.134Z,73.91
2023-05-21T02:48:52.539Z,73.83
2023-05-21T02:51:19.665Z,74.25
2023-05-21T02:53:46.847Z,69.73
2023-05-21T02:56:14.061Z,69.97
2023-05-21T02:58:41.805Z,69.51
2023-05-21T03:01:08.987Z,71.25
2023-05-21T03:03:36.308Z,69.78
2023-05-21T03:06:03.749Z,68.85
2023-05-21T03:08:31.812Z,72.17
2023-05-21T03:10:58.949Z,72.30
2023-05-21T03:13:26.141Z,70.63
2023-05-21T03:15:56.494Z,67.95
2023-05-21T03:18:24.187Z,69.68
2023-05-21T03:20:51.354Z,69.61
2023-05-21T03:23:18.573Z,68.22
2023-05-21T03:25:46.197Z,71.34
2023-05-21T03:28:13.425Z,72.79
2023-05-21T03:30:40.837Z,72.21
2023-05-21T03:33:08.115Z,73.79
2023-05-21T03:35:35.644Z,72.52
2023-05-21T03:38:03.093Z,73.07
2023-05-21T03:40:30.239Z,70.26
2023-05-21T03:42:57.473Z,72.41
2023-05-21T03:45:24.638Z,74.78
2023-05-21T03:47:51.837Z,72.59
2023-05-21T03:50:19.064Z,73.65
2023-05-21T03:52:46.181Z,72.27
2023-05-21T03:55:13.508Z,74.03
2023-05-21T03:57:41.880Z,74.02
2023-05-21T04:00:10.033Z,72.93
2023-05-21T04:02:37.387Z,73.38
2023-05-21T04:05:05.084Z,74.16
2023-05-21T04:07:34.812Z,75.05
2023-05-21T04:10:02.052Z,73.44
2023-05-21T04:12:29.174Z,72.91
2023-05-21T04:14:56.699Z,70.95
2023-05-21T04:17:27.069Z,73.22
2023-05-21T04:19:54.420Z,73.03
2023-05-21T04:22:23.570Z,72.64
2023-05-21T04:24:59.642Z,74.28
2023-05-21T04:27:29.851Z,69.66
2023-05-21T04:29:58.026Z,72.38
2023-05-21T04:32:25.606Z,73.20
2023-05-21T04:34:52.706Z,73.22
2023-05-21T04:37:20.025Z,73.52
2023-05-21T04:39:48.106Z,73.50
2023-05-21T04:42:19.427Z,74.12
2023-05-21T04:44:46.619Z,75.32
2023-05-21T04:47:14.861Z,73.29
2023-05-21T04:49:57.189Z,72.93
2023-05-21T04:52:25.152Z,73.35
2023-05-21T04:54:58.513Z,71.22
2023-05-21T04:57:35.750Z,72.55
2023-05-21T05:00:06.768Z,71.10
2023-05-21T05:02:37.132Z,72.96
2023-05-21T05:05:07.517Z,70.34
2023-05-21T05:07:35.500Z,72.40
2023-05-21T05:10:09.207Z,70.68
2023-05-21T05:12:42.667Z,70.91
2023-05-21T05:15:16.410Z,73.53
2023-05-21T05:17:52.192Z,71.16
2023-05-21T05:20:22.411Z,69.33
2023-05-21T05:23:18.387Z,71.14
2023-05-21T05:25:48.472Z,68.21
2023-05-21T05:29:13.479Z,69.39
2023-05-21T05:33:08.127Z,68.22
2023-05-21T05:34:46.316Z,67.85
2023-05-21T05:37:13.663Z,66.71
2023-05-21T05:40:00.642Z,68.08
2023-05-21T05:42:31.451Z,67.08
2023-05-21T05:45:01.159Z,67.10
2023-05-21T05:47:28.278Z,63.80
2023-05-21T05:49:55.649Z,60.27
2023-05-21T05:54:53.062Z,62.45
2023-05-21T05:57:20.215Z,62.17
2023-05-21T05:59:50.245Z,59.08
2023-05-21T06:02:19.452Z,58.99
2023-05-21T06:04:46.769Z,58.06
2023-05-21T06:07:14.183Z,60.64
2023-05-21T06:09:46.740Z,61.72
2023-05-21T06:12:15.970Z,58.54
2023-05-21T06:14:46.154Z,59.01
2023-05-21T06:17:13.537Z,60.06
2023-05-21T06:19:40.821Z,60.89
2023-05-21T06:22:08.572Z,59.98
2023-05-21T06:24:35.911Z,62.32
2023-05-21T06:27:04.052Z,61.05
2023-05-21T06:29:31.267Z,60.78
2023-05-21T06:32:01.674Z,58.22
2023-05-21T06:34:29.380Z,61.64
2023-05-21T06:36:57.149Z,59.53
2023-05-21T06:39:24.662Z,58.68
2023-05-21T06:41:52.572Z,59.25
2023-05-21T06:44:20.096Z,59.01
2023-05-21T06:46:47.709Z,59.44
2023-05-21T06:49:15.036Z,57.84
2023-05-21T06:51:42.772Z,57.50
2023-05-21T06:54:09.883Z,58.69
2023-05-21T06:56:37.078Z,58.75
2023-05-21T06:59:05.514Z,58.60
2023-05-21T07:01:36.803Z,60.48
2023-05-21T07:04:04.367Z,56.79
2023-05-21T07:06:32.552Z,56.86
2023-05-21T07:08:59.710Z,57.71
2023-05-21T07:11:28.884Z,55.39
2023-05-21T07:14:03.977Z,55.14
2023-05-21T07:16:39.549Z,54.50
2023-05-21T07:19:13.744Z,55.39
2023-05-21T07:21:47.220Z,54.64
2023-05-21T07:24:14.323Z,55.20
2023-05-21T07:26:42.481Z,54.16
2023-05-21T07:29:09.925Z,56.93
2023-05-21T07:31:37.139Z,57.06
2023-05-21T07:34:04.544Z,56.30
2023-05-21T07:36:34.043Z,55.80
2023-05-21T07:39:01.691Z,55.90
2023-05-21T07:41:28.905Z,56.51
2023-05-21T07:43:59.144Z,56.40
2023-05-21T07:46:26.372Z,55.27
2023-05-21T07:48:54.085Z,56.19
2023-05-21T07:51:21.551Z,53.69
2023-05-21T07:53:48.753Z,56.06
2023-05-21T07:56:16.297Z,55.46
2023-05-21T07:58:45.955Z,55.46
2023-05-21T08:01:14.207Z,54.81
2023-05-21T08:03:41.715Z,53.54
2023-05-21T08:06:11.531Z,54.53
2023-05-21T08:08:38.769Z,54.68
2023-05-21T08:11:09.140Z,54.95
2023-05-21T08:13:36.517Z,54.54
2023-05-21T08:16:04.292Z,52.99
2023-05-21T08:18:31.906Z,54.22
2023-05-21T08:21:00.441Z,52.70
2023-05-21T08:23:28.241Z,48.24
2023-05-21T08:25:58.307Z,51.28
2023-05-21T08:28:28.948Z,52.47
2023-05-21T08:30:56.497Z,51.00
2023-05-21T08:33:23.808Z,51.28
2023-05-21T08:35:50.935Z,50.21
2023-05-21T08:38:18.262Z,49.13
2023-05-21T08:40:50.109Z,49.42
2023-05-21T08:43:18.002Z,51.09
2023-05-21T08:46:00.693Z,47.70
2023-05-21T08:48:28.240Z,48.25
2023-05-21T08:51:03.301Z,48.97
2023-05-21T08:53:32.595Z,46.65
2023-05-21T08:56:00.178Z,47.24
2023-05-21T08:58:31.973Z,45.20
2023-05-21T09:00:59.608Z,47.60
2023-05-21T09:03:29.312Z,47.98
2023-05-21T09:05:57.472Z,45.04
2023-05-21T09:08:39.149Z,44.98
2023-05-21T09:11:06.592Z,43.99
2023-05-21T09:13:35.849Z,44.64
2023-05-21T09:16:05.856Z,43.67
2023-05-21T09:18:33.022Z,45.53
2023-05-21T09:21:31.417Z,44.84
2023-05-21T09:24:01.479Z,42.11
2023-05-21T09:26:28.738Z,44.93
2023-05-21T09:29:04.228Z,44.57
2023-05-21T09:31:33.009Z,38.84
2023-05-21T09:34:00.935Z,44.44
2023-05-21T09:36:29.557Z,43.04
2023-05-21T09:39:03.132Z,45.47
2023-05-21T09:41:36.029Z,43.40
2023-05-21T09:44:04.067Z,41.05
2023-05-21T09:46:42.074Z,45.27
2023-05-21T09:49:28.365Z,44.18
2023-05-21T09:51:59.029Z,41.77
2023-05-21T09:54:34.509Z,42.02
2023-05-21T09:57:07.849Z,41.70
2023-05-21T09:59:42.005Z,43.44
2023-05-21T10:02:24.024Z,43.21
2023-05-21T10:04:54.494Z,42.21
2023-05-21T10:07:26.419Z,42.51
2023-05-21T10:10:15.072Z,42.23
2023-05-21T10:12:47.882Z,42.88
2023-05-21T10:15:22.343Z,41.98
2023-05-21T10:17:51.008Z,40.18
2023-05-21T10:20:18.571Z,41.89
2023-05-21T10:22:46.303Z,39.68
2023-05-21T10:25:14.265Z,40.54
2023-05-21T10:27:42.539Z,40.59
2023-05-21T10:30:10.789Z,39.60
2023-05-21T10:32:42.288Z,41.66
2023-05-21T10:35:10.125Z,41.96
2023-05-21T10:37:37.600Z,40.82
2023-05-21T10:40:09.038Z,40.11
2023-05-21T10:42:49.763Z,39.88
2023-05-21T10:46:15.017Z,40.06
2023-05-21T10:49:22.562Z,39.41
2023-05-21T10:52:57.418Z,40.68
2023-05-21T10:56:16.203Z,40.07
2023-05-21T10:59:34.542Z,40.00
2023-05-21T11:02:02.444Z,39.39
2023-05-21T11:04:29.934Z,39.05
2023-05-21T11:06:59.253Z,39.25
2023-05-21T11:09:27.691Z,37.38
2023-05-21T11:11:59.321Z,36.91
2023-05-21T11:14:42.855Z,38.48
2023-05-21T11:17:15.873Z,37.47
2023-05-21T11:19:48.766Z,36.38
2023-05-21T11:22:27.669Z,38.31
2023-05-21T11:25:03.166Z,36.98
2023-05-21T11:27:41.829Z,35.92
2023-05-21T11:30:20.020Z,34.43
2023-05-21T11:33:14.195Z,36.62
2023-05-21T11:36:02.154Z,36.47
2023-05-21T11:38:34.072Z,36.31
2023-05-21T11:41:05.153Z,35.72
2023-05-21T11:43:32.319Z,34.71
2023-05-21T11:45:59.967Z,34.33
2023-05-21T11:48:29.414Z,34.52
2023-05-21T11:50:58.006Z,36.65
2023-05-21T11:53:25.265Z,33.71
2023-05-21T11:55:57.312Z,33.88
2023-05-21T11:58:25.850Z,34.57
2023-05-21T12:00:53.219Z,33.86
2023-05-21T12:03:26.629Z,34.14
2023-05-21T12:05:54.302Z,34.01
2023-05-21T12:08:25.463Z,31.96
2023-05-21T12:11:00.468Z,32.36
2023-05-21T12:13:28.611Z,32.91
2023-05-21T12:16:00.991Z,34.96
2023-05-21T12:18:30.263Z,34.18
2023-05-21T12:20:57.549Z,33.52
2023-05-21T12:23:25.188Z,32.80
2023-05-21T12:25:53.723Z,32.70
2023-05-21T12:28:24.882Z,31.71
2023-05-21T12:30:53.550Z,34.91
2023-05-21T12:33:23.125Z,34.33
2023-05-21T12:35:52.526Z,33.23
2023-05-21T12:38:22.760Z,33.60
2023-05-21T12:40:50.023Z,33.12
2023-05-21T12:43:20.163Z,33.79
2023-05-21T12:45:47.345Z,33.27
2023-05-21T12:48:15.094Z,32.34
2023-05-21T12:50:45.460Z,32.67
2023-05-21T12:53:12.898Z,32.43
2023-05-21T12:55:40.589Z,31.56
2023-05-21T12:58:08.856Z,31.65
2023-05-21T13:00:37.189Z,31.35
2023-05-21T13:03:06.235Z,32.19
2023-05-21T13:05:34.359Z,30.17
2023-05-21T13:08:01.766Z,28.77
2023-05-21T13:10:29.103Z,29.77
2023-05-21T13:12:56.508Z,31.49
2023-05-21T13:15:23.775Z,31.47
2023-05-21T13:17:52.056Z,32.21
2023-05-21T13:20:21.692Z,33.81
2023-05-21T13:22:52.237Z,33.63
2023-05-21T13:25:29.068Z,32.69
2023-05-21T13:27:59.963Z,32.69
2023-05-21T13:30:27.212Z,30.99
2023-05-21T13:32:55.016Z,32.22
2023-05-21T13:35:22.472Z,31.54
2023-05-21T13:37:49.846Z,30.93
2023-05-21T13:40:17.486Z,30.88
2023-05-21T13:42:48.894Z,28.92
2023-05-21T13:45:19.690Z,30.53
2023-05-21T13:47:48.244Z,29.51
2023-05-21T13:50:16.654Z,30.06
2023-05-21T13:52:46.163Z,30.10
2023-05-21T13:55:15.690Z,29.89
2023-05-21T13:57:43.830Z,30.76
2023-05-21T14:00:14.277Z,28.74
2023-05-21T14:02:45.230Z,30.29
2023-05-21T14:05:13.110Z,30.21
2023-05-21T14:07:40.756Z,30.96
2023-05-21T14:10:08.843Z,31.82
2023-05-21T14:12:36.408Z,30.46
2023-05-21T14:15:03.913Z,31.93
2023-05-21T14:17:31.074Z,31.16
2023-05-21T14:19:58.512Z,30.26
2023-05-21T14:22:25.698Z,29.01
2023-05-21T14:24:52.914Z,30.34
2023-05-21T14:27:20.120Z,31.86
2023-05-21T14:29:47.330Z,30.41
2023-05-21T14:32:18.405Z,30.05
2023-05-21T14:34:47.165Z,31.23
2023-05-21T14:37:14.420Z,31.93
2023-05-21T14:39:41.612Z,31.07
2023-05-21T14:42:08.742Z,31.22
2023-05-21T14:44:39.471Z,31.12
2023-05-21T14:47:06.590Z,31.41
2023-05-21T14:49:33.862Z,32.36
2023-05-21T14:52:01.306Z,31.59
2023-05-21T14:54:28.426Z,30.98
2023-05-21T14:56:55.795Z,32.52
2023-05-21T14:59:25.399Z,30.80
2023-05-21T15:01:52.660Z,31.63
2023-05-21T15:04:35.193Z,32.18
2023-05-21T15:07:04.879Z,32.04
2023-05-21T15:09:32.301Z,32.79
2023-05-21T15:11:59.748Z,32.26
2023-05-21T15:14:31.065Z,32.27
2023-05-21T15:16:58.401Z,31.98
2023-05-21T15:19:25.955Z,32.35
2023-05-21T15:21:53.440Z,32.53
2023-05-21T15:24:20.974Z,31.77
2023-05-21T15:26:49.298Z,30.76
2023-05-21T15:29:16.404Z,31.47
2023-05-21T15:31:43.669Z,32.00
2023-05-21T15:34:10.895Z,32.41
2023-05-21T15:36:38.292Z,30.14
2023-05-21T15:39:06.110Z,31.06
2023-05-21T15:41:39.990Z,30.87
2023-05-21T15:44:07.078Z,31.78
2023-05-21T15:46:34.533Z,31.27
2023-05-21T15:49:03.964Z,31.87
2023-05-21T15:51:31.350Z,31.33
2023-05-21T15:53:58.887Z,31.29
2023-05-21T15:56:26.608Z,31.82
2023-05-21T15:58:54.022Z,31.21
2023-05-21T16:01:24.132Z,31.72
2023-05-21T16:03:51.895Z,31.62
2023-05-21T16:06:20.002Z,31.53
2023-05-21T16:08:47.977Z,31.54
2023-05-21T16:11:15.388Z,30.76
2023-05-21T16:14:03.396Z,32.08
2023-05-21T16:16:30.674Z,31.08
2023-05-21T16:18:57.816Z,31.42
2023-05-21T16:21:25.050Z,31.17
2023-05-21T16:23:52.261Z,31.29
2023-05-21T16:26:19.441Z,31.68
2023-05-21T16:28:46.590Z,31.89
2023-05-21T16:31:14.162Z,31.44
2023-05-21T16:33:41.388Z,30.81
2023-05-21T16:36:08.706Z,31.56
2023-05-21T16:38:36.124Z,32.32
2023-05-21T16:41:04.617Z,31.91
2023-05-21T16:43:31.936Z,32.51
2023-05-21T16:45:59.345Z,32.67
2023-05-21T16:48:29.149Z,33.49
2023-05-21T16:50:56.459Z,32.87
2023-05-21T16:53:23.577Z,32.20
2023-05-21T16:55:50.862Z,32.65
2023-05-21T16:58:18.932Z,32.25
2023-05-21T17:00:46.567Z,32.70
2023-05-21T17:03:14.062Z,32.87
2023-05-21T17:05:41.480Z,32.85
2023-05-21T17:08:11.360Z,34.10
2023-05-21T17:10:38.685Z,33.79
2023-05-21T17:13:20.895Z,33.96
2023-05-21T17:15:51.451Z,34.38
2023-05-21T17:18:19.980Z,33.48
2023-05-21T17:20:47.188Z,33.18
2023-05-21T17:23:14.706Z,33.86
2023-05-21T17:25:42.574Z,33.35
2023-05-21T17:28:09.989Z,34.09
2023-05-21T17:30:37.624Z,34.42
2023-05-21T17:33:07.481Z,35.01
2023-05-21T17:35:35.188Z,34.38
2023-05-21T17:38:02.645Z,34.75
2023-05-21T17:40:29.708Z,34.26
2023-05-21T17:42:57.010Z,35.14
2023-05-21T17:45:24.157Z,34.39
2023-05-21T17:47:51.912Z,34.60
2023-05-21T17:50:19.047Z,35.22
2023-05-21T17:52:46.183Z,35.55
2023-05-21T17:55:14.376Z,35.95
2023-05-21T17:57:41.565Z,36.92
2023-05-21T18:00:10.194Z,36.18
2023-05-21T18:02:37.501Z,36.73
2023-05-21T18:05:05.302Z,36.37
2023-05-21T18:07:32.456Z,36.85
2023-05-21T18:09:59.852Z,37.18
2023-05-21T18:12:26.985Z,38.28
2023-05-21T18:14:54.351Z,39.21
2023-05-21T18:17:24.173Z,38.47
2023-05-21T18:19:51.632Z,38.99
2023-05-21T18:22:18.749Z,38.94
2023-05-21T18:24:46.217Z,38.32
2023-05-21T18:27:13.543Z,38.16
2023-05-21T18:29:40.760Z,38.14
2023-05-21T18:32:08.641Z,39.15
2023-05-21T18:34:35.867Z,38.88
2023-05-21T18:37:03.081Z,37.67
2023-05-21T18:39:30.411Z,39.19
2023-05-21T18:44:27.762Z,38.83
2023-05-21T18:46:55.684Z,39.41
2023-05-21T18:49:24.309Z,38.90
2023-05-21T18:51:51.608Z,39.13
2023-05-21T18:54:18.696Z,39.75
2023-05-21T18:56:46.157Z,39.97
2023-05-21T18:59:13.386Z,40.11
2023-05-21T19:01:40.631Z,38.74
2023-05-21T19:04:07.849Z,40.02
2023-05-21T19:06:35.076Z,40.23
2023-05-21T19:09:02.404Z,40.45
2023-05-21T19:11:34.374Z,40.27
2023-05-21T19:14:01.944Z,41.60
2023-05-21T19:16:29.546Z,41.25
2023-05-21T19:18:57.255Z,41.10
2023-05-21T19:21:25.206Z,42.00
2023-05-21T19:23:55.654Z,41.94
2023-05-21T19:26:23.384Z,42.72
2023-05-21T19:28:53.442Z,41.64
2023-05-21T19:31:23.055Z,41.60
2023-05-21T19:33:50.757Z,41.61
2023-05-21T19:36:18.689Z,42.37
2023-05-21T19:38:50.609Z,42.48
2023-05-21T19:41:22.104Z,42.82
2023-05-21T19:43:49.384Z,42.35
2023-05-21T19:46:19.812Z,42.86
2023-05-21T19:48:48.255Z,41.65
2023-05-21T19:51:18.540Z,42.20
2023-05-21T19:53:45.661Z,41.91
2023-05-21T19:56:12.754Z,42.53
2023-05-21T19:58:47.026Z,42.22
2023-05-21T20:01:16.536Z,41.78
2023-05-21T20:03:44.914Z,42.05
2023-05-21T20:06:13.069Z,41.97
2023-05-21T20:08:42.927Z,41.66
2023-05-21T20:11:11.048Z,41.44
2023-05-21T20:13:38.475Z,41.98
2023-05-21T20:16:06.003Z,41.68
2023-05-21T20:18:33.138Z,41.45
2023-05-21T20:21:00.670Z,42.94
2023-05-21T20:23:30.759Z,43.14
2023-05-21T20:25:57.974Z,43.43
2023-05-21T20:28:27.426Z,44.04
2023-05-21T20:31:00.042Z,42.31
2023-05-21T20:33:32.308Z,43.44
2023-05-21T20:36:00.509Z,42.65
2023-05-21T20:38:33.465Z,43.07
2023-05-21T20:41:01.335Z,43.22
2023-05-21T20:43:28.644Z,42.54
2023-05-21T20:46:01.824Z,42.73
2023-05-21T20:48:32.080Z,42.46
2023-05-21T20:51:04.349Z,43.87
2023-05-21T20:53:31.933Z,41.66
2023-05-21T20:56:01.358Z,42.43
2023-05-21T20:58:28.829Z,41.62
2023-05-21T21:00:56.009Z,41.99
2023-05-21T21:03:23.289Z,44.06
2023-05-21T21:05:50.670Z,43.01
2023-05-21T21:08:18.188Z,42.78
2023-05-21T21:10:49.510Z,43.88
2023-05-21T21:13:16.748Z,42.80
2023-05-21T21:15:44.207Z,43.57
2023-05-21T21:18:14.268Z,43.64
2023-05-21T21:20:42.598Z,42.72
2023-05-21T21:23:09.879Z,43.85
2023-05-21T21:25:37.067Z,44.22
2023-05-21T21:28:11.629Z,43.44
2023-05-21T21:30:41.078Z,43.90
2023-05-21T21:33:08.932Z,43.16
2023-05-21T21:35:36.245Z,43.32
2023-05-21T21:38:05.017Z,42.84
2023-05-21T21:40:32.359Z,43.56
2023-05-21T21:42:59.872Z,43.25
2023-05-21T21:45:27.133Z,42.24
2023-05-21T21:47:54.290Z,42.68
2023-05-21T21:50:21.955Z,43.00
2023-05-21T21:52:49.132Z,43.63
2023-05-21T21:55:19.685Z,43.62
2023-05-21T21:57:46.897Z,41.60
2023-05-21T22:00:20.960Z,43.08
2023-05-21T22:02:48.313Z,43.52
2023-05-21T22:05:15.877Z,43.07
2023-05-21T22:07:47.164Z,43.06
2023-05-21T22:10:19.137Z,42.87
2023-05-21T22:12:46.830Z,43.57
2023-05-21T22:15:28.698Z,43.09
2023-05-21T22:17:56.041Z,43.42
2023-05-21T22:20:23.439Z,41.21
2023-05-21T22:22:51.334Z,41.82
2023-05-21T22:25:19.183Z,43.32
2023-05-21T22:27:46.548Z,42.84
2023-05-21T22:30:13.895Z,43.23
2023-05-21T22:32:41.181Z,42.76
2023-05-21T22:35:12.552Z,42.37
2023-05-21T22:37:43.463Z,42.59
2023-05-21T22:40:11.094Z,42.38
2023-05-21T22:42:38.905Z,42.15
2023-05-21T22:45:07.438Z,42.23
2023-05-21T22:47:38.189Z,41.88
2023-05-21T22:50:10.228Z,42.29
2023-05-21T22:52:40.143Z,41.82
2023-05-21T22:55:11.204Z,42.83
2023-05-21T22:57:38.938Z,42.72
2023-05-21T23:00:07.994Z,42.69
2023-05-21T23:02:35.282Z,42.05
2023-05-21T23:05:02.836Z,43.19
2023-05-21T23:07:30.586Z,42.88
2023-05-21T23:09:58.125Z,43.46
2023-05-21T23:12:25.394Z,42.56
2023-05-21T23:14:52.854Z,43.29
2023-05-21T23:17:20.331Z,43.42
2023-05-21T23:19:52.346Z,43.77
2023-05-21T23:22:23.005Z,42.19
2023-05-21T23:24:51.733Z,43.09
2023-05-21T23:27:20.751Z,43.43
2023-05-21T23:29:47.993Z,42.99
2023-05-21T23:32:15.664Z,42.95
2023-05-21T23:34:42.943Z,42.66
2023-05-21T23:37:10.787Z,42.54
2023-05-21T23:39:38.065Z,42.84
2023-05-21T23:42:06.275Z,41.66
2023-05-21T23:44:33.385Z,41.40
2023-05-21T23:47:00.615Z,41.04
2023-05-21T23:49:27.804Z,41.04
2023-05-21T23:51:55.266Z,41.21
2023-05-21T23:54:22.443Z,42.13
2023-05-21T23:56:49.835Z,42.28
2023-05-21T23:59:18.479Z,43.11
